Monday, September 01, 2014
21:17 UTC
  |  Log In   |  Register Free
Airport Search:

Clayton Municipal Airport
(11A)

Clayton Municipal Airport Diagram
No Airport Diagram Available

FAA data valid effective July 24, 2014 until September 18, 2014 (unless otherwise noted).

 
 
 
 
 
 
 
 
 
 
 
 
 
 

Current Aviation Weather for Clayton Municipal Airport (11A)

The most recent METAR observation for KEUF was updated at: 1958 UTC
METAR Summary (Translated METAR)
KEUF
011958Z AUTO 00000KT 10SM CLR 36/19 A3003 RMK AO2 SLP164 T03610194 $
KLSF
(24.2 nm NE from KEUF)
011958Z AUTO 25003KT 10SM CLR 35/21 A3002 RMK AO2 SLP166 T03490207
TAF Summary (Translated TAF)
KLSF
(24.2 nm NE from KEUF)
0119/0223 28008KT 9999 FEW050 SCT200 QNH3002INS TEMPO 0120/0123 27012G20KT 8000 -TSRA BKN040CB BKN120 BECMG 0200/0201 28008KT 9999 FEW050 SCT200 QNH3005INS TEMPO 0209/0212 4800 BR BECMG 0214/0215 29008KT 9999 FEW050 SCT200 QNH3006INS TEMPO 0218/0223 30010G20KT 8000 -TSRA BKN040CB BKN120 TX36/0119Z TN22/0210Z AMD 011927
KCSG
(35.3 nm NE from KEUF)
011946Z 0120/0218 24007KT P6SM SCT050 SCT150 TEMPO 0120/0122 VRB10KT 5SM -TSRA BKN040CB FM020100 20003KT P6SM FEW060 SCT150 FM021400 29005KT P6SM SCT035 SCT150
  Airport Weather Conditions for 11A

Current weather conditions are
not available for 11A


The nearest NOAA weather station
is at EUF, (18.6 nm NE from 11A)
  
 Current Weather at EUF
97° F
Fair
North winds at 0.0 mph
EUF NOAA Radar

Pressure: 30.03 in
Humidity: 37%
Wind: Calm
Dew Point: 66.9°F
Visibility: 10.00 mi


Airport Weather Forecast for 11A

Translated METAR and TAF for KEUF
Translated METAR for KEUF (2111 UTC 01 September 2014)
found at http://aviationweather.gov/adds/metars/
 
METAR text: KEUF 012058Z AUTO 00000KT 10SM CLR 37/21 A3001 RMK AO2 SLP158 T03670206 58023 $
Conditions at: KEUF (EUFAULA , AL, US) observed 2058 UTC 01 September 2014
Temperature: 36.7°C (98°F)
Dewpoint: 20.6°C (69°F) [RH = 39%]
Pressure (altimeter): 30.01 inches Hg (1016.3 mb)
[Sea-level pressure: 1015.8 mb]
Winds: calm
Visibility: 10 or more miles (16+ km)
Ceiling: at least 12,000 feet AGL
Clouds: sky clear below 12,000 feet AGL
Weather:
SOME DATA ABOVE MAY BE INACCURATE!!!
"$" is an indication the sensor requires maintenance
Translated TAF for KEUF

There is no translated TAF available for this airport

Find All Airport Services Find A Hotel Find A Rental Car Find A Golf Course Find A Restaurant $100 Hamburger



FBO's on the Field
FBO Company Facility Photos Services Transportation Aviation Fuel Prices: Prices include tax
Catering Weather Repair Courtesy Rental Type 100LL JetA JetA+ MOGAS 8087
 
Add another FBO Facility Photos Catering Weather Repair Courtesy Rental Type 100LL JetA JetA+ MOGAS 8087
Services Transportation Aviation Fuel Prices: Prices include tax
There are no FBO's currently reporting fuel at 11A. List your FBO now


GlobalAir.com Airport Resource Center model-print
model-print
model-print
model-print